sensor_id;sensor_type;location;lat;lon;timestamp;P1;durP1;ratioP1;P2;durP2;ratioP2
82230;SDS011;71832;45.138;9.816;2023-08-20T00:01:14;52.25;;;30.50;;
82230;SDS011;71832;45.138;9.816;2023-08-20T00:03:47;51.08;;;30.23;;
82230;SDS011;71832;45.138;9.816;2023-08-20T00:06:18;48.42;;;30.40;;
82230;SDS011;71832;45.138;9.816;2023-08-20T00:08:47;47.10;;;31.35;;
82230;SDS011;71832;45.138;9.816;2023-08-20T00:11:16;47.88;;;30.42;;
82230;SDS011;71832;45.138;9.816;2023-08-20T00:13:45;48.22;;;30.02;;
82230;SDS011;71832;45.138;9.816;2023-08-20T00:16:14;49.03;;;31.25;;
82230;SDS011;71832;45.138;9.816;2023-08-20T00:18:42;49.63;;;30.13;;
82230;SDS011;71832;45.138;9.816;2023-08-20T00:21:11;47.08;;;30.00;;
82230;SDS011;71832;45.138;9.816;2023-08-20T00:23:41;50.78;;;29.63;;
82230;SDS011;71832;45.138;9.816;2023-08-20T00:26:09;49.03;;;31.38;;
82230;SDS011;71832;45.138;9.816;2023-08-20T00:28:38;52.83;;;31.17;;
82230;SDS011;71832;45.138;9.816;2023-08-20T00:31:07;52.45;;;31.67;;
82230;SDS011;71832;45.138;9.816;2023-08-20T00:33:36;51.85;;;31.38;;
82230;SDS011;71832;45.138;9.816;2023-08-20T00:36:04;54.33;;;31.90;;
82230;SDS011;71832;45.138;9.816;2023-08-20T00:38:33;48.88;;;30.30;;
82230;SDS011;71832;45.138;9.816;2023-08-20T00:41:02;50.42;;;29.55;;
82230;SDS011;71832;45.138;9.816;2023-08-20T00:43:31;49.85;;;29.48;;
82230;SDS011;71832;45.138;9.816;2023-08-20T00:45:59;48.45;;;29.48;;
82230;SDS011;71832;45.138;9.816;2023-08-20T00:48:28;48.47;;;29.67;;
82230;SDS011;71832;45.138;9.816;2023-08-20T00:50:58;47.35;;;28.60;;
82230;SDS011;71832;45.138;9.816;2023-08-20T00:53:25;47.90;;;29.52;;
82230;SDS011;71832;45.138;9.816;2023-08-20T00:55:52;48.97;;;29.13;;
82230;SDS011;71832;45.138;9.816;2023-08-20T00:58:21;50.75;;;30.88;;
82230;SDS011;71832;45.138;9.816;2023-08-20T01:00:50;54.35;;;29.48;;
82230;SDS011;71832;45.138;9.816;2023-08-20T01:03:18;51.33;;;30.88;;
82230;SDS011;71832;45.138;9.816;2023-08-20T01:05:50;53.40;;;31.48;;
82230;SDS011;71832;45.138;9.816;2023-08-20T01:10:55;53.92;;;31.48;;
82230;SDS011;71832;45.138;9.816;2023-08-20T01:13:29;50.28;;;30.45;;
82230;SDS011;71832;45.138;9.816;2023-08-20T01:15:57;50.60;;;31.98;;
82230;SDS011;71832;45.138;9.816;2023-08-20T01:18:25;56.55;;;33.22;;
82230;SDS011;71832;45.138;9.816;2023-08-20T01:20:56;61.95;;;35.22;;
82230;SDS011;71832;45.138;9.816;2023-08-20T01:29:30;53.92;;;33.38;;
82230;SDS011;71832;45.138;9.816;2023-08-20T01:31:59;55.05;;;32.50;;
82230;SDS011;71832;45.138;9.816;2023-08-20T01:34:29;51.40;;;31.35;;
82230;SDS011;71832;45.138;9.816;2023-08-20T01:36:58;54.25;;;32.42;;
82230;SDS011;71832;45.138;9.816;2023-08-20T01:39:27;58.95;;;34.80;;
82230;SDS011;71832;45.138;9.816;2023-08-20T01:41:56;55.40;;;33.92;;
82230;SDS011;71832;45.138;9.816;2023-08-20T01:44:24;55.28;;;34.30;;
82230;SDS011;71832;45.138;9.816;2023-08-20T01:46:53;59.30;;;35.75;;
82230;SDS011;71832;45.138;9.816;2023-08-20T01:49:22;58.13;;;34.50;;
82230;SDS011;71832;45.138;9.816;2023-08-20T01:51:51;58.92;;;36.28;;
82230;SDS011;71832;45.138;9.816;2023-08-20T01:54:19;66.47;;;36.25;;
82230;SDS011;71832;45.138;9.816;2023-08-20T01:56:48;62.97;;;36.85;;
82230;SDS011;71832;45.138;9.816;2023-08-20T01:59:17;62.58;;;37.10;;
82230;SDS011;71832;45.138;9.816;2023-08-20T02:01:46;61.08;;;35.78;;
82230;SDS011;71832;45.138;9.816;2023-08-20T02:04:14;63.65;;;36.10;;
82230;SDS011;71832;45.138;9.816;2023-08-20T02:06:43;64.55;;;36.97;;
82230;SDS011;71832;45.138;9.816;2023-08-20T02:09:12;61.53;;;35.67;;
82230;SDS011;71832;45.138;9.816;2023-08-20T02:11:40;61.80;;;35.40;;
82230;SDS011;71832;45.138;9.816;2023-08-20T02:14:09;61.63;;;35.75;;
82230;SDS011;71832;45.138;9.816;2023-08-20T02:16:37;64.47;;;36.63;;
82230;SDS011;71832;45.138;9.816;2023-08-20T02:19:07;63.45;;;35.95;;
82230;SDS011;71832;45.138;9.816;2023-08-20T02:21:35;63.25;;;36.72;;
82230;SDS011;71832;45.138;9.816;2023-08-20T02:24:05;67.93;;;38.00;;
82230;SDS011;71832;45.138;9.816;2023-08-20T02:26:34;63.75;;;37.42;;
82230;SDS011;71832;45.138;9.816;2023-08-20T02:29:03;65.20;;;37.53;;
82230;SDS011;71832;45.138;9.816;2023-08-20T02:31:32;66.07;;;38.13;;
82230;SDS011;71832;45.138;9.816;2023-08-20T02:34:00;64.65;;;38.10;;
82230;SDS011;71832;45.138;9.816;2023-08-20T02:36:29;68.60;;;38.85;;
82230;SDS011;71832;45.138;9.816;2023-08-20T02:38:58;66.80;;;38.88;;
82230;SDS011;71832;45.138;9.816;2023-08-20T02:41:26;70.50;;;38.97;;
82230;SDS011;71832;45.138;9.816;2023-08-20T02:43:55;71.72;;;40.50;;
82230;SDS011;71832;45.138;9.816;2023-08-20T02:46:24;68.95;;;38.42;;
82230;SDS011;71832;45.138;9.816;2023-08-20T02:48:53;78.30;;;43.25;;
82230;SDS011;71832;45.138;9.816;2023-08-20T02:51:22;73.97;;;41.35;;
82230;SDS011;71832;45.138;9.816;2023-08-20T02:53:50;77.47;;;42.10;;
82230;SDS011;71832;45.138;9.816;2023-08-20T02:56:19;78.32;;;40.20;;
82230;SDS011;71832;45.138;9.816;2023-08-20T02:58:48;69.80;;;39.92;;
82230;SDS011;71832;45.138;9.816;2023-08-20T03:01:21;70.28;;;39.47;;
82230;SDS011;71832;45.138;9.816;2023-08-20T03:03:50;68.05;;;38.10;;
82230;SDS011;71832;45.138;9.816;2023-08-20T03:06:19;71.53;;;40.03;;
82230;SDS011;71832;45.138;9.816;2023-08-20T03:08:47;77.70;;;38.88;;
82230;SDS011;71832;45.138;9.816;2023-08-20T03:11:15;69.13;;;40.13;;
82230;SDS011;71832;45.138;9.816;2023-08-20T03:13:45;74.63;;;41.22;;
82230;SDS011;71832;45.138;9.816;2023-08-20T03:16:13;66.20;;;38.75;;
82230;SDS011;71832;45.138;9.816;2023-08-20T03:18:41;72.10;;;39.97;;
82230;SDS011;71832;45.138;9.816;2023-08-20T03:21:10;74.00;;;39.60;;
82230;SDS011;71832;45.138;9.816;2023-08-20T03:23:38;69.18;;;38.58;;
82230;SDS011;71832;45.138;9.816;2023-08-20T03:26:07;73.80;;;42.08;;
82230;SDS011;71832;45.138;9.816;2023-08-20T03:28:36;70.82;;;38.88;;
82230;SDS011;71832;45.138;9.816;2023-08-20T03:31:04;69.93;;;38.95;;
82230;SDS011;71832;45.138;9.816;2023-08-20T03:33:33;65.43;;;39.13;;
82230;SDS011;71832;45.138;9.816;2023-08-20T03:36:02;66.75;;;37.28;;
82230;SDS011;71832;45.138;9.816;2023-08-20T03:38:31;71.20;;;39.22;;
82230;SDS011;71832;45.138;9.816;2023-08-20T03:40:59;71.93;;;39.83;;
82230;SDS011;71832;45.138;9.816;2023-08-20T03:43:29;69.63;;;39.67;;
82230;SDS011;71832;45.138;9.816;2023-08-20T03:45:58;73.78;;;39.85;;
82230;SDS011;71832;45.138;9.816;2023-08-20T03:48:26;73.65;;;41.03;;
82230;SDS011;71832;45.138;9.816;2023-08-20T03:50:55;70.00;;;39.65;;
82230;SDS011;71832;45.138;9.816;2023-08-20T03:53:24;78.40;;;41.28;;
82230;SDS011;71832;45.138;9.816;2023-08-20T03:55:53;79.47;;;41.88;;
82230;SDS011;71832;45.138;9.816;2023-08-20T03:58:21;76.85;;;41.92;;
82230;SDS011;71832;45.138;9.816;2023-08-20T04:00:50;75.38;;;43.35;;
82230;SDS011;71832;45.138;9.816;2023-08-20T04:03:19;75.82;;;40.40;;
82230;SDS011;71832;45.138;9.816;2023-08-20T04:05:49;73.90;;;41.67;;
82230;SDS011;71832;45.138;9.816;2023-08-20T04:08:18;75.50;;;42.17;;
82230;SDS011;71832;45.138;9.816;2023-08-20T04:10:47;72.70;;;40.15;;
82230;SDS011;71832;45.138;9.816;2023-08-20T04:13:15;70.43;;;40.53;;
82230;SDS011;71832;45.138;9.816;2023-08-20T04:15:44;66.28;;;37.63;;
82230;SDS011;71832;45.138;9.816;2023-08-20T04:18:13;74.05;;;39.65;;
82230;SDS011;71832;45.138;9.816;2023-08-20T04:20:42;69.85;;;37.60;;
82230;SDS011;71832;45.138;9.816;2023-08-20T04:23:11;67.18;;;37.45;;
82230;SDS011;71832;45.138;9.816;2023-08-20T04:25:39;61.58;;;35.85;;
82230;SDS011;71832;45.138;9.816;2023-08-20T04:28:08;71.20;;;37.45;;
82230;SDS011;71832;45.138;9.816;2023-08-20T04:30:35;70.57;;;39.22;;
82230;SDS011;71832;45.138;9.816;2023-08-20T04:33:03;60.47;;;35.42;;
82230;SDS011;71832;45.138;9.816;2023-08-20T04:35:31;63.17;;;37.13;;
82230;SDS011;71832;45.138;9.816;2023-08-20T04:37:59;62.58;;;36.58;;
82230;SDS011;71832;45.138;9.816;2023-08-20T04:40:27;66.28;;;35.55;;
82230;SDS011;71832;45.138;9.816;2023-08-20T04:42:55;66.57;;;37.55;;
82230;SDS011;71832;45.138;9.816;2023-08-20T04:45:23;66.30;;;37.83;;
82230;SDS011;71832;45.138;9.816;2023-08-20T04:47:52;68.82;;;38.63;;
82230;SDS011;71832;45.138;9.816;2023-08-20T04:50:20;67.80;;;37.22;;
82230;SDS011;71832;45.138;9.816;2023-08-20T04:52:49;73.47;;;39.60;;
82230;SDS011;71832;45.138;9.816;2023-08-20T04:55:17;69.00;;;38.08;;
82230;SDS011;71832;45.138;9.816;2023-08-20T04:57:45;74.03;;;39.88;;
82230;SDS011;71832;45.138;9.816;2023-08-20T05:00:15;74.07;;;41.83;;
82230;SDS011;71832;45.138;9.816;2023-08-20T05:02:43;78.18;;;42.88;;
82230;SDS011;71832;45.138;9.816;2023-08-20T05:05:12;77.63;;;43.15;;
82230;SDS011;71832;45.138;9.816;2023-08-20T05:07:40;79.65;;;40.78;;
82230;SDS011;71832;45.138;9.816;2023-08-20T05:10:08;72.25;;;40.45;;
82230;SDS011;71832;45.138;9.816;2023-08-20T05:12:37;78.70;;;44.85;;
82230;SDS011;71832;45.138;9.816;2023-08-20T05:15:06;80.40;;;42.03;;
82230;SDS011;71832;45.138;9.816;2023-08-20T05:17:34;68.95;;;39.30;;
82230;SDS011;71832;45.138;9.816;2023-08-20T05:20:03;66.30;;;38.65;;
82230;SDS011;71832;45.138;9.816;2023-08-20T05:22:31;71.97;;;40.08;;
82230;SDS011;71832;45.138;9.816;2023-08-20T05:25:00;71.82;;;39.33;;
82230;SDS011;71832;45.138;9.816;2023-08-20T05:27:28;72.72;;;39.60;;
82230;SDS011;71832;45.138;9.816;2023-08-20T05:29:58;70.72;;;40.15;;
82230;SDS011;71832;45.138;9.816;2023-08-20T05:32:25;71.85;;;39.95;;
82230;SDS011;71832;45.138;9.816;2023-08-20T05:38:16;76.35;;;39.53;;
82230;SDS011;71832;45.138;9.816;2023-08-20T05:40:44;72.55;;;40.22;;
82230;SDS011;71832;45.138;9.816;2023-08-20T05:43:13;76.88;;;39.80;;
82230;SDS011;71832;45.138;9.816;2023-08-20T05:45:41;77.68;;;41.28;;
82230;SDS011;71832;45.138;9.816;2023-08-20T05:48:08;79.15;;;42.47;;
82230;SDS011;71832;45.138;9.816;2023-08-20T05:50:36;79.28;;;41.47;;
82230;SDS011;71832;45.138;9.816;2023-08-20T05:53:03;85.43;;;45.15;;
82230;SDS011;71832;45.138;9.816;2023-08-20T05:55:32;82.80;;;45.05;;
82230;SDS011;71832;45.138;9.816;2023-08-20T05:58:01;78.82;;;43.20;;
82230;SDS011;71832;45.138;9.816;2023-08-20T06:00:30;77.70;;;44.53;;
82230;SDS011;71832;45.138;9.816;2023-08-20T06:02:58;85.65;;;45.58;;
82230;SDS011;71832;45.138;9.816;2023-08-20T06:05:26;85.80;;;45.88;;
82230;SDS011;71832;45.138;9.816;2023-08-20T06:07:54;84.90;;;46.97;;
82230;SDS011;71832;45.138;9.816;2023-08-20T06:10:23;82.30;;;44.88;;
82230;SDS011;71832;45.138;9.816;2023-08-20T06:12:52;81.20;;;42.88;;
82230;SDS011;71832;45.138;9.816;2023-08-20T06:15:21;84.30;;;45.70;;
82230;SDS011;71832;45.138;9.816;2023-08-20T06:17:50;89.68;;;48.05;;
82230;SDS011;71832;45.138;9.816;2023-08-20T06:20:17;85.70;;;44.70;;
82230;SDS011;71832;45.138;9.816;2023-08-20T06:22:46;88.88;;;46.03;;
82230;SDS011;71832;45.138;9.816;2023-08-20T06:25:13;78.95;;;43.35;;
82230;SDS011;71832;45.138;9.816;2023-08-20T06:27:41;80.85;;;45.20;;
82230;SDS011;71832;45.138;9.816;2023-08-20T06:30:10;82.80;;;45.38;;
82230;SDS011;71832;45.138;9.816;2023-08-20T06:32:39;77.97;;;43.58;;
82230;SDS011;71832;45.138;9.816;2023-08-20T06:35:07;89.68;;;46.00;;
82230;SDS011;71832;45.138;9.816;2023-08-20T06:37:35;81.93;;;44.13;;
82230;SDS011;71832;45.138;9.816;2023-08-20T06:40:06;77.32;;;43.08;;
82230;SDS011;71832;45.138;9.816;2023-08-20T06:42:34;77.07;;;41.72;;
82230;SDS011;71832;45.138;9.816;2023-08-20T06:45:02;83.50;;;44.83;;
82230;SDS011;71832;45.138;9.816;2023-08-20T06:47:29;75.05;;;42.28;;
82230;SDS011;71832;45.138;9.816;2023-08-20T06:49:57;73.00;;;40.88;;
82230;SDS011;71832;45.138;9.816;2023-08-20T06:52:25;75.15;;;42.25;;
82230;SDS011;71832;45.138;9.816;2023-08-20T06:54:52;74.15;;;40.42;;
82230;SDS011;71832;45.138;9.816;2023-08-20T06:57:20;71.25;;;40.50;;
82230;SDS011;71832;45.138;9.816;2023-08-20T06:59:47;74.22;;;41.75;;
82230;SDS011;71832;45.138;9.816;2023-08-20T07:02:15;72.03;;;41.20;;
82230;SDS011;71832;45.138;9.816;2023-08-20T07:04:43;75.13;;;42.08;;
82230;SDS011;71832;45.138;9.816;2023-08-20T07:07:10;70.88;;;40.35;;
82230;SDS011;71832;45.138;9.816;2023-08-20T07:09:40;68.10;;;39.28;;
82230;SDS011;71832;45.138;9.816;2023-08-20T07:12:08;74.35;;;41.83;;
82230;SDS011;71832;45.138;9.816;2023-08-20T07:14:37;74.07;;;41.78;;
82230;SDS011;71832;45.138;9.816;2023-08-20T07:17:05;68.88;;;38.70;;
82230;SDS011;71832;45.138;9.816;2023-08-20T07:19:36;68.85;;;40.00;;
82230;SDS011;71832;45.138;9.816;2023-08-20T07:22:03;69.05;;;38.97;;
82230;SDS011;71832;45.138;9.816;2023-08-20T07:24:31;72.97;;;39.38;;
82230;SDS011;71832;45.138;9.816;2023-08-20T07:27:01;64.57;;;37.53;;
82230;SDS011;71832;45.138;9.816;2023-08-20T07:29:36;71.97;;;39.42;;
82230;SDS011;71832;45.138;9.816;2023-08-20T07:32:04;67.30;;;40.38;;
82230;SDS011;71832;45.138;9.816;2023-08-20T07:34:32;72.32;;;40.13;;
82230;SDS011;71832;45.138;9.816;2023-08-20T07:37:00;69.70;;;41.08;;
82230;SDS011;71832;45.138;9.816;2023-08-20T07:39:28;72.25;;;41.05;;
82230;SDS011;71832;45.138;9.816;2023-08-20T07:41:56;64.65;;;37.63;;
82230;SDS011;71832;45.138;9.816;2023-08-20T07:44:24;73.22;;;38.85;;
82230;SDS011;71832;45.138;9.816;2023-08-20T07:46:51;68.85;;;37.10;;
82230;SDS011;71832;45.138;9.816;2023-08-20T07:49:19;63.47;;;35.00;;
82230;SDS011;71832;45.138;9.816;2023-08-20T07:51:46;59.78;;;35.15;;
82230;SDS011;71832;45.138;9.816;2023-08-20T07:56:44;58.63;;;34.05;;
82230;SDS011;71832;45.138;9.816;2023-08-20T07:59:12;59.85;;;33.78;;
82230;SDS011;71832;45.138;9.816;2023-08-20T08:01:40;64.22;;;37.22;;
82230;SDS011;71832;45.138;9.816;2023-08-20T08:04:07;68.75;;;39.72;;
82230;SDS011;71832;45.138;9.816;2023-08-20T08:06:35;63.55;;;36.63;;
82230;SDS011;71832;45.138;9.816;2023-08-20T08:09:48;62.28;;;34.72;;
82230;SDS011;71832;45.138;9.816;2023-08-20T08:12:00;63.70;;;34.15;;
82230;SDS011;71832;45.138;9.816;2023-08-20T08:14:28;63.80;;;35.47;;
82230;SDS011;71832;45.138;9.816;2023-08-20T08:16:55;57.80;;;34.08;;
82230;SDS011;71832;45.138;9.816;2023-08-20T08:19:24;59.90;;;34.55;;
82230;SDS011;71832;45.138;9.816;2023-08-20T08:21:51;64.13;;;39.90;;
82230;SDS011;71832;45.138;9.816;2023-08-20T08:24:18;58.55;;;34.55;;
82230;SDS011;71832;45.138;9.816;2023-08-20T08:26:46;75.43;;;39.47;;
82230;SDS011;71832;45.138;9.816;2023-08-20T08:29:13;51.58;;;33.42;;
82230;SDS011;71832;45.138;9.816;2023-08-20T08:31:40;51.30;;;31.35;;
82230;SDS011;71832;45.138;9.816;2023-08-20T08:34:08;61.00;;;32.92;;
82230;SDS011;71832;45.138;9.816;2023-08-20T08:36:36;70.13;;;37.67;;
82230;SDS011;71832;45.138;9.816;2023-08-20T08:39:03;191.15;;;75.80;;
82230;SDS011;71832;45.138;9.816;2023-08-20T08:41:31;111.55;;;50.15;;
82230;SDS011;71832;45.138;9.816;2023-08-20T08:44:01;356.90;;;107.75;;
82230;SDS011;71832;45.138;9.816;2023-08-20T08:46:29;264.67;;;78.43;;
82230;SDS011;71832;45.138;9.816;2023-08-20T08:48:58;235.43;;;75.05;;
82230;SDS011;71832;45.138;9.816;2023-08-20T08:51:26;208.02;;;60.58;;
82230;SDS011;71832;45.138;9.816;2023-08-20T08:53:54;111.78;;;41.15;;
82230;SDS011;71832;45.138;9.816;2023-08-20T08:56:22;69.10;;;32.85;;
82230;SDS011;71832;45.138;9.816;2023-08-20T08:58:50;64.22;;;30.90;;
82230;SDS011;71832;45.138;9.816;2023-08-20T09:01:18;43.55;;;26.38;;
82230;SDS011;71832;45.138;9.816;2023-08-20T09:03:47;122.25;;;40.53;;
82230;SDS011;71832;45.138;9.816;2023-08-20T09:06:14;47.85;;;26.10;;
82230;SDS011;71832;45.138;9.816;2023-08-20T09:08:43;39.17;;;26.63;;
82230;SDS011;71832;45.138;9.816;2023-08-20T09:11:11;42.15;;;22.02;;
82230;SDS011;71832;45.138;9.816;2023-08-20T09:13:39;42.00;;;25.15;;
82230;SDS011;71832;45.138;9.816;2023-08-20T09:16:10;40.15;;;26.58;;
82230;SDS011;71832;45.138;9.816;2023-08-20T09:18:38;94.35;;;37.25;;
82230;SDS011;71832;45.138;9.816;2023-08-20T09:21:06;84.82;;;31.30;;
82230;SDS011;71832;45.138;9.816;2023-08-20T09:23:35;37.45;;;24.00;;
82230;SDS011;71832;45.138;9.816;2023-08-20T09:26:03;38.58;;;22.80;;
82230;SDS011;71832;45.138;9.816;2023-08-20T09:28:42;28.25;;;20.17;;
82230;SDS011;71832;45.138;9.816;2023-08-20T09:31:11;81.13;;;28.58;;
82230;SDS011;71832;45.138;9.816;2023-08-20T09:33:49;48.50;;;24.75;;
82230;SDS011;71832;45.138;9.816;2023-08-20T09:36:18;93.72;;;33.88;;
82230;SDS011;71832;45.138;9.816;2023-08-20T09:38:55;55.50;;;27.40;;
82230;SDS011;71832;45.138;9.816;2023-08-20T09:41:23;50.67;;;25.48;;
82230;SDS011;71832;45.138;9.816;2023-08-20T09:43:54;47.80;;;24.80;;
82230;SDS011;71832;45.138;9.816;2023-08-20T09:46:26;39.20;;;23.05;;
82230;SDS011;71832;45.138;9.816;2023-08-20T09:48:58;32.92;;;22.48;;
82230;SDS011;71832;45.138;9.816;2023-08-20T09:51:27;37.10;;;20.48;;
82230;SDS011;71832;45.138;9.816;2023-08-20T09:54:03;38.47;;;22.00;;
82230;SDS011;71832;45.138;9.816;2023-08-20T09:59:26;57.47;;;26.92;;
82230;SDS011;71832;45.138;9.816;2023-08-20T10:01:55;49.65;;;25.45;;
82230;SDS011;71832;45.138;9.816;2023-08-20T10:04:24;29.05;;;20.42;;
82230;SDS011;71832;45.138;9.816;2023-08-20T10:06:52;36.50;;;20.50;;
82230;SDS011;71832;45.138;9.816;2023-08-20T10:09:21;29.75;;;20.23;;
82230;SDS011;71832;45.138;9.816;2023-08-20T10:11:49;34.47;;;22.33;;
82230;SDS011;71832;45.138;9.816;2023-08-20T10:14:17;27.15;;;19.58;;
82230;SDS011;71832;45.138;9.816;2023-08-20T10:16:46;29.63;;;19.70;;
82230;SDS011;71832;45.138;9.816;2023-08-20T10:19:15;33.45;;;21.38;;
82230;SDS011;71832;45.138;9.816;2023-08-20T10:21:44;34.90;;;21.08;;
82230;SDS011;71832;45.138;9.816;2023-08-20T10:24:16;38.55;;;21.33;;
82230;SDS011;71832;45.138;9.816;2023-08-20T10:26:45;31.70;;;20.75;;
82230;SDS011;71832;45.138;9.816;2023-08-20T10:29:34;32.92;;;19.92;;
82230;SDS011;71832;45.138;9.816;2023-08-20T10:32:04;28.77;;;19.60;;
82230;SDS011;71832;45.138;9.816;2023-08-20T10:34:35;27.30;;;19.55;;
82230;SDS011;71832;45.138;9.816;2023-08-20T10:37:09;26.58;;;18.95;;
82230;SDS011;71832;45.138;9.816;2023-08-20T10:39:39;26.80;;;19.10;;
82230;SDS011;71832;45.138;9.816;2023-08-20T10:42:09;29.17;;;20.38;;
82230;SDS011;71832;45.138;9.816;2023-08-20T10:45:05;26.38;;;17.20;;
82230;SDS011;71832;45.138;9.816;2023-08-20T10:47:44;27.55;;;18.02;;
82230;SDS011;71832;45.138;9.816;2023-08-20T10:50:15;37.38;;;19.80;;
82230;SDS011;71832;45.138;9.816;2023-08-20T10:52:49;24.90;;;17.45;;
82230;SDS011;71832;45.138;9.816;2023-08-20T10:55:22;27.25;;;17.83;;
82230;SDS011;71832;45.138;9.816;2023-08-20T10:57:55;27.73;;;17.20;;
82230;SDS011;71832;45.138;9.816;2023-08-20T11:00:25;27.30;;;18.27;;
82230;SDS011;71832;45.138;9.816;2023-08-20T11:02:53;23.13;;;16.92;;
82230;SDS011;71832;45.138;9.816;2023-08-20T11:05:22;18.13;;;14.27;;
82230;SDS011;71832;45.138;9.816;2023-08-20T11:07:50;24.20;;;14.35;;
82230;SDS011;71832;45.138;9.816;2023-08-20T11:10:19;20.08;;;14.82;;
82230;SDS011;71832;45.138;9.816;2023-08-20T11:12:48;18.75;;;14.07;;
82230;SDS011;71832;45.138;9.816;2023-08-20T11:15:15;18.15;;;13.82;;
82230;SDS011;71832;45.138;9.816;2023-08-20T11:17:45;16.63;;;12.05;;
82230;SDS011;71832;45.138;9.816;2023-08-20T11:20:14;20.80;;;14.57;;
82230;SDS011;71832;45.138;9.816;2023-08-20T11:22:42;18.45;;;12.90;;
82230;SDS011;71832;45.138;9.816;2023-08-20T11:25:11;15.18;;;11.88;;
82230;SDS011;71832;45.138;9.816;2023-08-20T11:27:41;16.50;;;11.80;;
82230;SDS011;71832;45.138;9.816;2023-08-20T11:30:09;17.50;;;12.13;;
82230;SDS011;71832;45.138;9.816;2023-08-20T11:32:38;15.75;;;11.30;;
82230;SDS011;71832;45.138;9.816;2023-08-20T11:35:07;14.70;;;11.77;;
82230;SDS011;71832;45.138;9.816;2023-08-20T11:37:36;16.48;;;12.25;;
82230;SDS011;71832;45.138;9.816;2023-08-20T11:40:06;19.00;;;11.63;;
82230;SDS011;71832;45.138;9.816;2023-08-20T11:42:34;13.57;;;10.98;;
82230;SDS011;71832;45.138;9.816;2023-08-20T11:45:02;18.60;;;12.50;;
82230;SDS011;71832;45.138;9.816;2023-08-20T11:47:30;21.10;;;12.20;;
82230;SDS011;71832;45.138;9.816;2023-08-20T11:50:09;15.80;;;12.65;;
82230;SDS011;71832;45.138;9.816;2023-08-20T11:52:37;16.67;;;11.82;;
82230;SDS011;71832;45.138;9.816;2023-08-20T11:55:06;16.75;;;11.82;;
82230;SDS011;71832;45.138;9.816;2023-08-20T11:57:35;17.75;;;12.13;;
82230;SDS011;71832;45.138;9.816;2023-08-20T12:00:03;17.17;;;11.48;;
82230;SDS011;71832;45.138;9.816;2023-08-20T12:02:40;16.65;;;12.07;;
82230;SDS011;71832;45.138;9.816;2023-08-20T12:05:08;13.55;;;11.00;;
82230;SDS011;71832;45.138;9.816;2023-08-20T12:07:36;18.17;;;12.40;;
82230;SDS011;71832;45.138;9.816;2023-08-20T12:12:53;18.75;;;12.95;;
82230;SDS011;71832;45.138;9.816;2023-08-20T12:15:22;17.58;;;11.57;;
82230;SDS011;71832;45.138;9.816;2023-08-20T12:18:02;15.93;;;11.88;;
82230;SDS011;71832;45.138;9.816;2023-08-20T12:20:32;17.38;;;12.25;;
82230;SDS011;71832;45.138;9.816;2023-08-20T12:23:01;17.67;;;12.02;;
82230;SDS011;71832;45.138;9.816;2023-08-20T12:25:31;13.90;;;11.52;;
82230;SDS011;71832;45.138;9.816;2023-08-20T12:28:01;17.42;;;12.80;;
82230;SDS011;71832;45.138;9.816;2023-08-20T12:30:30;15.23;;;12.13;;
82230;SDS011;71832;45.138;9.816;2023-08-20T12:33:00;14.88;;;11.77;;
82230;SDS011;71832;45.138;9.816;2023-08-20T12:35:29;15.00;;;11.35;;
82230;SDS011;71832;45.138;9.816;2023-08-20T12:37:56;15.00;;;11.63;;
82230;SDS011;71832;45.138;9.816;2023-08-20T12:40:25;14.85;;;11.15;;
82230;SDS011;71832;45.138;9.816;2023-08-20T12:42:53;16.80;;;12.13;;
82230;SDS011;71832;45.138;9.816;2023-08-20T12:45:20;16.52;;;12.30;;
82230;SDS011;71832;45.138;9.816;2023-08-20T12:47:48;14.93;;;11.15;;
82230;SDS011;71832;45.138;9.816;2023-08-20T12:50:16;16.08;;;11.10;;
82230;SDS011;71832;45.138;9.816;2023-08-20T12:52:44;17.20;;;12.10;;
82230;SDS011;71832;45.138;9.816;2023-08-20T12:55:14;18.00;;;11.55;;
82230;SDS011;71832;45.138;9.816;2023-08-20T12:57:52;17.08;;;11.45;;
82230;SDS011;71832;45.138;9.816;2023-08-20T13:00:21;14.85;;;11.40;;
82230;SDS011;71832;45.138;9.816;2023-08-20T13:02:51;14.02;;;11.70;;
82230;SDS011;71832;45.138;9.816;2023-08-20T13:05:21;16.77;;;11.38;;
82230;SDS011;71832;45.138;9.816;2023-08-20T13:07:50;15.32;;;11.75;;
82230;SDS011;71832;45.138;9.816;2023-08-20T13:10:19;15.38;;;11.60;;
82230;SDS011;71832;45.138;9.816;2023-08-20T13:12:50;15.30;;;11.75;;
82230;SDS011;71832;45.138;9.816;2023-08-20T13:15:19;18.75;;;12.02;;
82230;SDS011;71832;45.138;9.816;2023-08-20T13:17:48;14.48;;;10.90;;
82230;SDS011;71832;45.138;9.816;2023-08-20T13:20:16;21.02;;;11.95;;
82230;SDS011;71832;45.138;9.816;2023-08-20T13:22:48;14.30;;;12.35;;
82230;SDS011;71832;45.138;9.816;2023-08-20T13:25:16;15.77;;;11.68;;
82230;SDS011;71832;45.138;9.816;2023-08-20T13:27:44;15.25;;;11.90;;
82230;SDS011;71832;45.138;9.816;2023-08-20T13:30:11;15.48;;;11.85;;
82230;SDS011;71832;45.138;9.816;2023-08-20T13:32:39;15.18;;;11.77;;
82230;SDS011;71832;45.138;9.816;2023-08-20T13:35:06;15.52;;;11.27;;
82230;SDS011;71832;45.138;9.816;2023-08-20T13:37:34;15.35;;;11.57;;
82230;SDS011;71832;45.138;9.816;2023-08-20T13:40:03;16.35;;;11.80;;
82230;SDS011;71832;45.138;9.816;2023-08-20T13:42:35;14.88;;;11.70;;
82230;SDS011;71832;45.138;9.816;2023-08-20T13:45:02;17.08;;;11.88;;
82230;SDS011;71832;45.138;9.816;2023-08-20T13:47:30;16.00;;;11.15;;
82230;SDS011;71832;45.138;9.816;2023-08-20T13:49:59;16.95;;;11.77;;
82230;SDS011;71832;45.138;9.816;2023-08-20T13:52:30;16.25;;;11.63;;
82230;SDS011;71832;45.138;9.816;2023-08-20T13:54:57;15.75;;;12.27;;
82230;SDS011;71832;45.138;9.816;2023-08-20T13:57:26;15.52;;;11.40;;
82230;SDS011;71832;45.138;9.816;2023-08-20T13:59:55;17.88;;;12.05;;
82230;SDS011;71832;45.138;9.816;2023-08-20T14:02:23;13.98;;;11.95;;
82230;SDS011;71832;45.138;9.816;2023-08-20T14:08:15;14.73;;;10.60;;
82230;SDS011;71832;45.138;9.816;2023-08-20T14:10:44;13.98;;;10.82;;
82230;SDS011;71832;45.138;9.816;2023-08-20T14:13:13;16.73;;;11.27;;
82230;SDS011;71832;45.138;9.816;2023-08-20T14:15:41;14.80;;;10.77;;
82230;SDS011;71832;45.138;9.816;2023-08-20T14:18:10;17.75;;;11.07;;
82230;SDS011;71832;45.138;9.816;2023-08-20T14:20:39;16.40;;;12.10;;
82230;SDS011;71832;45.138;9.816;2023-08-20T14:23:07;17.30;;;12.13;;
82230;SDS011;71832;45.138;9.816;2023-08-20T14:25:35;14.35;;;11.30;;
82230;SDS011;71832;45.138;9.816;2023-08-20T14:28:07;14.18;;;11.40;;
82230;SDS011;71832;45.138;9.816;2023-08-20T14:30:36;15.05;;;10.73;;
82230;SDS011;71832;45.138;9.816;2023-08-20T14:33:05;14.52;;;11.27;;
82230;SDS011;71832;45.138;9.816;2023-08-20T14:35:34;16.73;;;11.85;;
82230;SDS011;71832;45.138;9.816;2023-08-20T14:38:02;14.50;;;10.95;;
82230;SDS011;71832;45.138;9.816;2023-08-20T14:40:30;18.27;;;11.82;;
82230;SDS011;71832;45.138;9.816;2023-08-20T14:42:59;16.45;;;12.43;;
82230;SDS011;71832;45.138;9.816;2023-08-20T14:45:27;14.27;;;11.50;;
82230;SDS011;71832;45.138;9.816;2023-08-20T14:47:55;18.17;;;11.88;;
82230;SDS011;71832;45.138;9.816;2023-08-20T14:50:23;14.65;;;11.85;;
82230;SDS011;71832;45.138;9.816;2023-08-20T14:52:50;17.02;;;12.00;;
82230;SDS011;71832;45.138;9.816;2023-08-20T14:55:19;13.88;;;11.63;;